sensor_id;sensor_type;location;lat;lon;timestamp;pressure;altitude;pressure_sealevel;temperature;humidity
4576;BME280;2300;51.874;8.430;2022-11-11T00:02:20;102013.59;;;6.64;94.61
4576;BME280;2300;51.874;8.430;2022-11-11T00:04:47;102025.06;;;6.59;94.65
4576;BME280;2300;51.874;8.430;2022-11-11T00:07:14;102028.66;;;6.52;95.10
4576;BME280;2300;51.874;8.430;2022-11-11T00:09:40;102009.94;;;6.41;95.14
4576;BME280;2300;51.874;8.430;2022-11-11T00:12:07;102024.63;;;6.32;94.81
4576;BME280;2300;51.874;8.430;2022-11-11T00:14:33;102029.03;;;6.33;94.61
4576;BME280;2300;51.874;8.430;2022-11-11T00:17:01;102027.69;;;6.21;94.47
4576;BME280;2300;51.874;8.430;2022-11-11T00:19:45;102026.84;;;6.20;95.17
4576;BME280;2300;51.874;8.430;2022-11-11T00:22:29;102013.19;;;6.12;95.19
4576;BME280;2300;51.874;8.430;2022-11-11T00:25:15;102017.81;;;6.03;95.81
4576;BME280;2300;51.874;8.430;2022-11-11T00:27:42;102019.34;;;5.98;96.10
4576;BME280;2300;51.874;8.430;2022-11-11T00:30:09;102020.34;;;5.97;96.01
4576;BME280;2300;51.874;8.430;2022-11-11T00:32:37;102019.84;;;5.93;96.92
4576;BME280;2300;51.874;8.430;2022-11-11T00:35:04;102008.25;;;5.91;97.02
4576;BME280;2300;51.874;8.430;2022-11-11T00:37:48;102014.41;;;5.85;97.54
4576;BME280;2300;51.874;8.430;2022-11-11T00:40:15;102023.59;;;5.92;97.71
4576;BME280;2300;51.874;8.430;2022-11-11T00:42:42;102019.50;;;5.96;98.65
4576;BME280;2300;51.874;8.430;2022-11-11T00:45:09;102013.22;;;5.96;98.48
4576;BME280;2300;51.874;8.430;2022-11-11T00:47:38;102018.34;;;5.91;97.92
4576;BME280;2300;51.874;8.430;2022-11-11T00:50:26;102015.94;;;5.88;98.17
4576;BME280;2300;51.874;8.430;2022-11-11T00:53:12;102013.72;;;5.91;98.41
4576;BME280;2300;51.874;8.430;2022-11-11T00:55:39;102020.22;;;5.90;98.66
4576;BME280;2300;51.874;8.430;2022-11-11T00:58:06;102018.34;;;5.91;98.08
4576;BME280;2300;51.874;8.430;2022-11-11T01:00:33;102011.66;;;5.77;98.22
4576;BME280;2300;51.874;8.430;2022-11-11T01:03:01;102018.13;;;5.76;98.15
4576;BME280;2300;51.874;8.430;2022-11-11T01:05:28;102005.19;;;5.78;98.04
4576;BME280;2300;51.874;8.430;2022-11-11T01:07:55;102025.16;;;5.95;98.70
4576;BME280;2300;51.874;8.430;2022-11-11T01:10:22;102033.31;;;6.03;98.59
4576;BME280;2300;51.874;8.430;2022-11-11T01:13:12;102041.19;;;6.06;99.02
4576;BME280;2300;51.874;8.430;2022-11-11T01:15:39;102036.91;;;6.03;98.35
4576;BME280;2300;51.874;8.430;2022-11-11T01:18:09;102035.19;;;6.02;97.77
4576;BME280;2300;51.874;8.430;2022-11-11T01:20:36;102036.19;;;6.01;97.91
4576;BME280;2300;51.874;8.430;2022-11-11T01:23:03;102037.06;;;6.02;97.48
4576;BME280;2300;51.874;8.430;2022-11-11T01:25:32;102035.53;;;5.99;97.63
4576;BME280;2300;51.874;8.430;2022-11-11T01:27:58;102027.19;;;6.01;97.47
4576;BME280;2300;51.874;8.430;2022-11-11T01:30:25;102032.66;;;6.01;97.75
4576;BME280;2300;51.874;8.430;2022-11-11T01:32:52;102037.25;;;6.00;97.64
4576;BME280;2300;51.874;8.430;2022-11-11T01:35:19;102042.72;;;6.00;97.56
4576;BME280;2300;51.874;8.430;2022-11-11T01:37:46;102036.22;;;5.93;97.49
4576;BME280;2300;51.874;8.430;2022-11-11T01:40:12;102034.16;;;5.79;97.02
4576;BME280;2300;51.874;8.430;2022-11-11T01:42:46;102049.16;;;5.91;96.61
4576;BME280;2300;51.874;8.430;2022-11-11T01:45:52;102046.59;;;5.82;96.69
4576;BME280;2300;51.874;8.430;2022-11-11T01:48:24;102055.97;;;5.79;96.64
4576;BME280;2300;51.874;8.430;2022-11-11T01:51:15;102052.91;;;5.74;96.73
4576;BME280;2300;51.874;8.430;2022-11-11T01:53:46;102058.00;;;5.69;96.38
4576;BME280;2300;51.874;8.430;2022-11-11T01:56:15;102050.16;;;5.66;96.37
4576;BME280;2300;51.874;8.430;2022-11-11T01:58:42;102048.47;;;5.65;96.58
4576;BME280;2300;51.874;8.430;2022-11-11T02:01:09;102066.34;;;5.59;97.00
4576;BME280;2300;51.874;8.430;2022-11-11T02:03:40;102059.00;;;5.60;97.63
4576;BME280;2300;51.874;8.430;2022-11-11T02:06:28;102018.06;;;5.36;97.62
4576;BME280;2300;51.874;8.430;2022-11-11T02:08:55;102044.00;;;5.56;97.82
4576;BME280;2300;51.874;8.430;2022-11-11T02:11:22;102045.72;;;5.57;97.75
4576;BME280;2300;51.874;8.430;2022-11-11T02:14:04;102044.34;;;5.61;97.99
4576;BME280;2300;51.874;8.430;2022-11-11T02:16:48;102048.47;;;5.65;98.13
4576;BME280;2300;51.874;8.430;2022-11-11T02:19:17;102031.75;;;5.60;98.40
4576;BME280;2300;51.874;8.430;2022-11-11T02:21:52;102041.81;;;5.67;98.26
4576;BME280;2300;51.874;8.430;2022-11-11T02:24:23;102033.13;;;5.72;98.02
4576;BME280;2300;51.874;8.430;2022-11-11T02:26:51;102037.56;;;5.73;98.31
4576;BME280;2300;51.874;8.430;2022-11-11T02:29:20;102034.50;;;5.76;98.46
4576;BME280;2300;51.874;8.430;2022-11-11T02:31:47;102037.56;;;5.81;98.26
4576;BME280;2300;51.874;8.430;2022-11-11T02:34:14;102035.88;;;5.80;98.62
4576;BME280;2300;51.874;8.430;2022-11-11T02:36:41;102030.41;;;5.88;98.76
4576;BME280;2300;51.874;8.430;2022-11-11T02:39:09;102037.94;;;6.10;98.39
4576;BME280;2300;51.874;8.430;2022-11-11T02:41:37;102042.34;;;6.19;98.14
4576;BME280;2300;51.874;8.430;2022-11-11T02:44:21;102022.41;;;6.11;97.78
4576;BME280;2300;51.874;8.430;2022-11-11T02:46:47;102032.97;;;6.14;97.35
4576;BME280;2300;51.874;8.430;2022-11-11T02:49:14;102042.69;;;6.08;96.63
4576;BME280;2300;51.874;8.430;2022-11-11T02:51:40;102050.38;;;6.05;96.13
4576;BME280;2300;51.874;8.430;2022-11-11T02:54:07;102051.56;;;6.02;96.67
4576;BME280;2300;51.874;8.430;2022-11-11T02:56:34;102033.50;;;5.85;96.62
4576;BME280;2300;51.874;8.430;2022-11-11T02:59:19;102056.31;;;5.92;96.53
4576;BME280;2300;51.874;8.430;2022-11-11T03:01:47;102053.59;;;5.84;96.09
4576;BME280;2300;51.874;8.430;2022-11-11T03:04:13;102057.34;;;5.83;96.71
4576;BME280;2300;51.874;8.430;2022-11-11T03:06:40;101964.09;;;5.23;96.47
4576;BME280;2300;51.874;8.430;2022-11-11T03:09:07;102050.34;;;5.72;96.35
4576;BME280;2300;51.874;8.430;2022-11-11T03:11:33;102052.91;;;5.74;97.22
4576;BME280;2300;51.874;8.430;2022-11-11T03:14:03;102041.31;;;5.64;96.95
4576;BME280;2300;51.874;8.430;2022-11-11T03:16:31;102049.13;;;5.59;96.67
4576;BME280;2300;51.874;8.430;2022-11-11T03:19:15;102061.72;;;5.60;96.83
4576;BME280;2300;51.874;8.430;2022-11-11T03:21:42;102056.63;;;5.57;96.68
4576;BME280;2300;51.874;8.430;2022-11-11T03:24:09;102046.38;;;5.51;96.14
4576;BME280;2300;51.874;8.430;2022-11-11T03:26:36;102056.41;;;5.50;96.88
4576;BME280;2300;51.874;8.430;2022-11-11T03:29:03;102049.09;;;5.43;96.71
4576;BME280;2300;51.874;8.430;2022-11-11T03:31:32;102049.75;;;5.45;96.91
4576;BME280;2300;51.874;8.430;2022-11-11T03:33:58;102068.84;;;5.45;97.49
4576;BME280;2300;51.874;8.430;2022-11-11T03:36:42;102076.34;;;5.43;98.21
4576;BME280;2300;51.874;8.430;2022-11-11T03:39:26;102074.28;;;5.45;98.17
4576;BME280;2300;51.874;8.430;2022-11-11T03:41:53;102061.00;;;5.33;97.64
4576;BME280;2300;51.874;8.430;2022-11-11T03:44:20;102070.00;;;5.34;97.48
4576;BME280;2300;51.874;8.430;2022-11-11T03:46:47;102066.09;;;5.37;97.90
4576;BME280;2300;51.874;8.430;2022-11-11T03:49:14;102059.94;;;5.34;97.56
4576;BME280;2300;51.874;8.430;2022-11-11T03:51:41;102061.81;;;5.34;97.53
4576;BME280;2300;51.874;8.430;2022-11-11T03:54:07;102054.16;;;5.29;97.38
4576;BME280;2300;51.874;8.430;2022-11-11T03:56:34;102051.78;;;5.34;97.45
4576;BME280;2300;51.874;8.430;2022-11-11T03:59:00;102055.56;;;5.33;97.51
4576;BME280;2300;51.874;8.430;2022-11-11T04:01:27;102054.34;;;5.36;98.22
4576;BME280;2300;51.874;8.430;2022-11-11T04:04:13;102051.78;;;5.34;97.56
4576;BME280;2300;51.874;8.430;2022-11-11T04:06:57;102054.19;;;5.38;97.83
4576;BME280;2300;51.874;8.430;2022-11-11T04:09:41;102051.97;;;5.41;97.76
4576;BME280;2300;51.874;8.430;2022-11-11T04:12:25;102065.28;;;5.44;97.95
4576;BME280;2300;51.874;8.430;2022-11-11T04:14:52;102042.59;;;5.36;97.52
4576;BME280;2300;51.874;8.430;2022-11-11T04:17:36;102059.13;;;5.42;97.36
4576;BME280;2300;51.874;8.430;2022-11-11T04:20:05;102071.75;;;5.51;97.89
4576;BME280;2300;51.874;8.430;2022-11-11T04:22:50;102059.66;;;5.46;97.87
4576;BME280;2300;51.874;8.430;2022-11-11T04:25:18;102057.28;;;5.43;97.37
4576;BME280;2300;51.874;8.430;2022-11-11T04:28:02;102050.78;;;5.36;97.38
4576;BME280;2300;51.874;8.430;2022-11-11T04:30:46;102048.03;;;5.36;97.22
4576;BME280;2300;51.874;8.430;2022-11-11T04:33:13;102040.56;;;5.38;97.88
4576;BME280;2300;51.874;8.430;2022-11-11T04:35:41;102046.03;;;5.38;97.95
4576;BME280;2300;51.874;8.430;2022-11-11T04:38:07;102039.91;;;5.44;97.68
4576;BME280;2300;51.874;8.430;2022-11-11T04:40:52;102030.84;;;5.35;97.61
4576;BME280;2300;51.874;8.430;2022-11-11T04:43:33;102048.75;;;5.46;97.89
4576;BME280;2300;51.874;8.430;2022-11-11T04:46:20;102046.22;;;5.52;97.67
4576;BME280;2300;51.874;8.430;2022-11-11T04:48:46;102049.47;;;5.56;97.80
4576;BME280;2300;51.874;8.430;2022-11-11T04:51:14;102049.13;;;5.59;97.66
4576;BME280;2300;51.874;8.430;2022-11-11T04:53:40;102016.41;;;5.43;97.84
4576;BME280;2300;51.874;8.430;2022-11-11T04:56:07;102047.06;;;5.61;97.93
4576;BME280;2300;51.874;8.430;2022-11-11T04:59:03;102042.84;;;5.58;97.13
4576;BME280;2300;51.874;8.430;2022-11-11T05:01:41;102062.75;;;5.67;96.66
4576;BME280;2300;51.874;8.430;2022-11-11T05:04:25;102049.97;;;5.51;96.88
4576;BME280;2300;51.874;8.430;2022-11-11T05:06:53;102064.63;;;5.66;96.96
4576;BME280;2300;51.874;8.430;2022-11-11T05:09:37;102070.63;;;5.70;96.97
4576;BME280;2300;51.874;8.430;2022-11-11T05:12:04;102054.25;;;5.62;96.58
4576;BME280;2300;51.874;8.430;2022-11-11T05:14:36;102066.34;;;5.67;96.44
4576;BME280;2300;51.874;8.430;2022-11-11T05:17:20;102053.53;;;5.52;96.18
4576;BME280;2300;51.874;8.430;2022-11-11T05:20:04;102074.03;;;5.64;96.04
4576;BME280;2300;51.874;8.430;2022-11-11T05:22:51;102078.06;;;5.60;96.64
4576;BME280;2300;51.874;8.430;2022-11-11T05:25:17;102073.81;;;5.57;96.93
4576;BME280;2300;51.874;8.430;2022-11-11T05:27:55;102078.75;;;5.54;96.64
4576;BME280;2300;51.874;8.430;2022-11-11T05:30:23;102066.47;;;5.42;96.98
4576;BME280;2300;51.874;8.430;2022-11-11T05:32:53;102085.03;;;5.46;96.66
4576;BME280;2300;51.874;8.430;2022-11-11T05:35:20;102083.16;;;5.47;96.65
4576;BME280;2300;51.874;8.430;2022-11-11T05:37:47;102067.13;;;5.36;95.90
4576;BME280;2300;51.874;8.430;2022-11-11T05:40:38;102077.66;;;5.30;95.91
4576;BME280;2300;51.874;8.430;2022-11-11T05:43:04;102079.72;;;5.28;96.52
4576;BME280;2300;51.874;8.430;2022-11-11T05:45:31;102085.16;;;5.28;96.07
4576;BME280;2300;51.874;8.430;2022-11-11T05:48:00;102065.34;;;5.18;96.26
4576;BME280;2300;51.874;8.430;2022-11-11T05:50:26;102077.94;;;5.11;96.50
4576;BME280;2300;51.874;8.430;2022-11-11T05:52:53;102087.13;;;5.18;96.16
4576;BME280;2300;51.874;8.430;2022-11-11T05:55:20;102072.78;;;5.08;96.73
4576;BME280;2300;51.874;8.430;2022-11-11T05:57:48;102089.13;;;5.08;96.66
4576;BME280;2300;51.874;8.430;2022-11-11T06:00:16;102092.91;;;5.15;96.82
4576;BME280;2300;51.874;8.430;2022-11-11T06:02:42;102088.47;;;5.14;96.74
4576;BME280;2300;51.874;8.430;2022-11-11T06:05:09;102090.53;;;5.12;97.30
4576;BME280;2300;51.874;8.430;2022-11-11T06:07:37;102101.78;;;5.17;97.77
4576;BME280;2300;51.874;8.430;2022-11-11T06:10:05;102112.34;;;5.20;97.28
4576;BME280;2300;51.874;8.430;2022-11-11T06:12:51;102113.69;;;5.16;97.12
4576;BME280;2300;51.874;8.430;2022-11-11T06:15:32;102123.53;;;5.09;97.47
4576;BME280;2300;51.874;8.430;2022-11-11T06:17:59;102119.09;;;5.08;96.77
4576;BME280;2300;51.874;8.430;2022-11-11T06:20:26;102111.25;;;5.05;96.71
4576;BME280;2300;51.874;8.430;2022-11-11T06:22:53;102129.97;;;5.08;96.77
4576;BME280;2300;51.874;8.430;2022-11-11T06:25:23;102117.03;;;5.02;96.93
4576;BME280;2300;51.874;8.430;2022-11-11T06:28:09;102111.50;;;4.86;97.10
4576;BME280;2300;51.874;8.430;2022-11-11T06:30:36;102128.56;;;4.96;96.94
4576;BME280;2300;51.874;8.430;2022-11-11T06:33:03;102136.75;;;4.96;98.01
4576;BME280;2300;51.874;8.430;2022-11-11T06:35:32;102103.22;;;4.70;97.49
4576;BME280;2300;51.874;8.430;2022-11-11T06:37:58;102101.47;;;4.61;97.88
4576;BME280;2300;51.874;8.430;2022-11-11T06:40:25;102130.69;;;4.84;98.84
4576;BME280;2300;51.874;8.430;2022-11-11T06:42:52;102151.50;;;4.94;98.16
4576;BME280;2300;51.874;8.430;2022-11-11T06:45:21;102158.53;;;4.96;98.28
4576;BME280;2300;51.874;8.430;2022-11-11T06:47:47;102154.72;;;4.89;97.77
4576;BME280;2300;51.874;8.430;2022-11-11T06:50:16;102131.97;;;4.72;97.68
4576;BME280;2300;51.874;8.430;2022-11-11T06:52:43;102163.59;;;4.91;98.17
4576;BME280;2300;51.874;8.430;2022-11-11T06:55:09;102158.66;;;4.95;97.67
4576;BME280;2300;51.874;8.430;2022-11-11T06:57:37;102162.09;;;4.97;97.67
4576;BME280;2300;51.874;8.430;2022-11-11T07:00:04;102154.41;;;4.92;98.09
4576;BME280;2300;51.874;8.430;2022-11-11T07:02:33;102166.53;;;4.98;97.98
4576;BME280;2300;51.874;8.430;2022-11-11T07:04:59;102169.16;;;5.07;98.18
4576;BME280;2300;51.874;8.430;2022-11-11T07:07:26;102171.88;;;5.07;97.60
4576;BME280;2300;51.874;8.430;2022-11-11T07:09:53;102174.25;;;5.10;97.44
4576;BME280;2300;51.874;8.430;2022-11-11T07:12:20;102155.19;;;5.10;98.01
4576;BME280;2300;51.874;8.430;2022-11-11T07:14:47;102163.59;;;5.25;97.95
4576;BME280;2300;51.874;8.430;2022-11-11T07:17:13;102166.53;;;5.31;97.89
4576;BME280;2300;51.874;8.430;2022-11-11T07:19:41;102167.13;;;5.43;97.64
4576;BME280;2300;51.874;8.430;2022-11-11T07:22:08;102166.25;;;5.43;97.36
4576;BME280;2300;51.874;8.430;2022-11-11T07:24:34;102138.97;;;5.34;97.48
4576;BME280;2300;51.874;8.430;2022-11-11T07:27:01;102182.69;;;5.67;97.16
4576;BME280;2300;51.874;8.430;2022-11-11T07:29:28;102152.34;;;5.62;96.79
4576;BME280;2300;51.874;8.430;2022-11-11T07:31:54;102139.03;;;5.51;96.03
4576;BME280;2300;51.874;8.430;2022-11-11T07:34:21;102188.56;;;5.88;96.30
4576;BME280;2300;51.874;8.430;2022-11-11T07:36:49;102180.41;;;5.96;96.31
4576;BME280;2300;51.874;8.430;2022-11-11T07:39:16;102173.25;;;6.03;95.57
4576;BME280;2300;51.874;8.430;2022-11-11T07:41:43;102174.47;;;6.17;95.98
4576;BME280;2300;51.874;8.430;2022-11-11T07:44:09;102182.00;;;6.31;95.55
4576;BME280;2300;51.874;8.430;2022-11-11T07:46:36;102181.84;;;6.49;95.20
4576;BME280;2300;51.874;8.430;2022-11-11T07:49:02;102171.09;;;6.63;94.80
4576;BME280;2300;51.874;8.430;2022-11-11T07:51:29;102180.16;;;6.88;94.33
4576;BME280;2300;51.874;8.430;2022-11-11T07:53:57;102189.53;;;7.02;93.04
4576;BME280;2300;51.874;8.430;2022-11-11T07:56:24;102117.00;;;6.75;92.82
4576;BME280;2300;51.874;8.430;2022-11-11T07:58:51;102197.81;;;7.33;92.02
4576;BME280;2300;51.874;8.430;2022-11-11T08:01:17;102183.09;;;7.42;91.71
4576;BME280;2300;51.874;8.430;2022-11-11T08:03:44;102168.41;;;7.43;91.57
4576;BME280;2300;51.874;8.430;2022-11-11T08:06:15;102164.91;;;7.57;91.17
4576;BME280;2300;51.874;8.430;2022-11-11T08:08:42;102187.72;;;7.80;90.54
4576;BME280;2300;51.874;8.430;2022-11-11T08:11:10;102190.72;;;7.94;90.56
4576;BME280;2300;51.874;8.430;2022-11-11T08:13:36;102200.41;;;8.04;90.47
4576;BME280;2300;51.874;8.430;2022-11-11T08:16:05;102206.09;;;8.03;89.77
4576;BME280;2300;51.874;8.430;2022-11-11T08:18:33;102196.78;;;8.12;89.76
4576;BME280;2300;51.874;8.430;2022-11-11T08:21:00;102194.34;;;8.17;89.52
4576;BME280;2300;51.874;8.430;2022-11-11T08:23:28;102195.69;;;8.21;89.88
4576;BME280;2300;51.874;8.430;2022-11-11T08:25:58;102196.00;;;8.26;88.66
4576;BME280;2300;51.874;8.430;2022-11-11T08:28:27;102197.78;;;8.42;89.16
4576;BME280;2300;51.874;8.430;2022-11-11T08:30:54;102202.41;;;8.41;88.10
4576;BME280;2300;51.874;8.430;2022-11-11T08:33:20;102203.31;;;8.56;88.05
4576;BME280;2300;51.874;8.430;2022-11-11T08:35:48;102206.31;;;8.69;87.54
4576;BME280;2300;51.874;8.430;2022-11-11T08:38:15;102214.03;;;8.89;88.08
4576;BME280;2300;51.874;8.430;2022-11-11T08:40:42;102215.66;;;8.98;87.90
4576;BME280;2300;51.874;8.430;2022-11-11T08:43:09;102202.03;;;8.90;87.39
4576;BME280;2300;51.874;8.430;2022-11-11T08:45:37;102214.16;;;9.10;86.76
4576;BME280;2300;51.874;8.430;2022-11-11T08:48:04;102206.63;;;9.12;85.00
4576;BME280;2300;51.874;8.430;2022-11-11T08:50:30;102213.16;;;9.26;85.90
4576;BME280;2300;51.874;8.430;2022-11-11T08:52:57;102210.81;;;9.37;86.23
4576;BME280;2300;51.874;8.430;2022-11-11T08:55:23;102227.09;;;9.53;86.11
4576;BME280;2300;51.874;8.430;2022-11-11T08:57:57;102226.78;;;9.63;85.80
4576;BME280;2300;51.874;8.430;2022-11-11T09:00:24;102227.06;;;9.68;84.40
4576;BME280;2300;51.874;8.430;2022-11-11T09:02:52;102218.91;;;9.75;84.59
4576;BME280;2300;51.874;8.430;2022-11-11T09:05:19;102229.91;;;9.89;84.08
4576;BME280;2300;51.874;8.430;2022-11-11T09:07:46;102216.44;;;9.80;83.30
4576;BME280;2300;51.874;8.430;2022-11-11T09:10:12;102234.50;;;10.04;82.51
4576;BME280;2300;51.874;8.430;2022-11-11T09:12:39;102239.56;;;10.21;82.32
4576;BME280;2300;51.874;8.430;2022-11-11T09:15:06;102242.88;;;10.31;81.98
4576;BME280;2300;51.874;8.430;2022-11-11T09:17:32;102237.94;;;10.41;80.50
4576;BME280;2300;51.874;8.430;2022-11-11T09:20:00;102237.41;;;10.53;81.55
4576;BME280;2300;51.874;8.430;2022-11-11T09:22:27;102237.75;;;10.64;81.13
4576;BME280;2300;51.874;8.430;2022-11-11T09:24:53;102233.50;;;10.62;81.52
4576;BME280;2300;51.874;8.430;2022-11-11T09:27:20;102247.69;;;10.87;81.18
4576;BME280;2300;51.874;8.430;2022-11-11T09:29:47;102243.06;;;10.87;80.05
4576;BME280;2300;51.874;8.430;2022-11-11T09:32:14;102242.78;;;11.03;80.07
4576;BME280;2300;51.874;8.430;2022-11-11T09:34:40;102249.69;;;10.99;79.32
4576;BME280;2300;51.874;8.430;2022-11-11T09:37:08;102255.81;;;11.22;79.87
4576;BME280;2300;51.874;8.430;2022-11-11T09:39:35;102251.44;;;11.28;79.36
4576;BME280;2300;51.874;8.430;2022-11-11T09:42:09;102254.50;;;11.40;79.79
4576;BME280;2300;51.874;8.430;2022-11-11T09:45:05;102233.13;;;11.42;79.78
4576;BME280;2300;51.874;8.430;2022-11-11T09:47:41;102238.00;;;11.46;79.70
4576;BME280;2300;51.874;8.430;2022-11-11T09:50:15;102252.63;;;11.75;79.94
4576;BME280;2300;51.874;8.430;2022-11-11T09:52:50;102252.72;;;11.94;80.29
4576;BME280;2300;51.874;8.430;2022-11-11T09:55:22;102256.66;;;12.20;79.45
4576;BME280;2300;51.874;8.430;2022-11-11T09:57:54;102245.47;;;12.34;77.82
4576;BME280;2300;51.874;8.430;2022-11-11T10:00:25;102258.00;;;12.37;77.32
4576;BME280;2300;51.874;8.430;2022-11-11T10:02:54;102245.28;;;12.36;76.59
4576;BME280;2300;51.874;8.430;2022-11-11T10:05:26;102248.72;;;12.58;76.62
4576;BME280;2300;51.874;8.430;2022-11-11T10:08:00;102245.78;;;12.72;76.44
4576;BME280;2300;51.874;8.430;2022-11-11T10:10:38;102246.59;;;12.66;74.90
4576;BME280;2300;51.874;8.430;2022-11-11T10:13:13;102246.19;;;12.63;75.31
4576;BME280;2300;51.874;8.430;2022-11-11T10:15:46;102238.97;;;12.62;75.12
4576;BME280;2300;51.874;8.430;2022-11-11T10:18:26;102250.22;;;12.67;75.19
4576;BME280;2300;51.874;8.430;2022-11-11T10:20:58;102250.00;;;12.62;75.20
4576;BME280;2300;51.874;8.430;2022-11-11T10:23:31;102234.09;;;12.57;74.46
4576;BME280;2300;51.874;8.430;2022-11-11T10:26:02;102251.72;;;12.69;74.20
4576;BME280;2300;51.874;8.430;2022-11-11T10:28:34;102250.03;;;12.81;74.05
4576;BME280;2300;51.874;8.430;2022-11-11T10:31:04;102242.38;;;12.77;73.34
4576;BME280;2300;51.874;8.430;2022-11-11T10:33:47;102254.34;;;13.04;74.45
4576;BME280;2300;51.874;8.430;2022-11-11T10:36:17;102249.69;;;13.11;72.90
4576;BME280;2300;51.874;8.430;2022-11-11T10:38:50;102251.38;;;13.05;72.36
4576;BME280;2300;51.874;8.430;2022-11-11T10:41:24;102242.44;;;13.23;71.75
4576;BME280;2300;51.874;8.430;2022-11-11T10:43:51;102249.22;;;13.40;71.73
4576;BME280;2300;51.874;8.430;2022-11-11T10:46:20;102247.94;;;13.49;72.63
4576;BME280;2300;51.874;8.430;2022-11-11T10:48:52;102248.34;;;13.66;71.70
4576;BME280;2300;51.874;8.430;2022-11-11T10:51:21;102242.41;;;13.49;71.42
4576;BME280;2300;51.874;8.430;2022-11-11T10:53:56;102251.53;;;13.63;71.45
4576;BME280;2300;51.874;8.430;2022-11-11T10:56:28;102229.00;;;13.66;71.06
4576;BME280;2300;51.874;8.430;2022-11-11T10:59:10;102227.03;;;13.79;70.38
4576;BME280;2300;51.874;8.430;2022-11-11T11:01:43;102236.84;;;13.75;71.62
4576;BME280;2300;51.874;8.430;2022-11-11T11:04:23;102224.09;;;13.74;70.31
4576;BME280;2300;51.874;8.430;2022-11-11T11:06:53;102244.44;;;13.93;70.82
4576;BME280;2300;51.874;8.430;2022-11-11T11:09:25;102227.81;;;14.00;70.95
4576;BME280;2300;51.874;8.430;2022-11-11T11:11:58;102239.53;;;14.08;69.92
4576;BME280;2300;51.874;8.430;2022-11-11T11:14:29;102215.72;;;14.01;70.31
4576;BME280;2300;51.874;8.430;2022-11-11T11:16:59;102224.00;;;14.07;70.69
4576;BME280;2300;51.874;8.430;2022-11-11T11:19:28;102232.00;;;14.22;69.15
4576;BME280;2300;51.874;8.430;2022-11-11T11:21:56;102242.56;;;14.38;69.35
4576;BME280;2300;51.874;8.430;2022-11-11T11:24:26;102230.25;;;14.34;69.15
4576;BME280;2300;51.874;8.430;2022-11-11T11:26:55;102238.91;;;14.44;68.91
4576;BME280;2300;51.874;8.430;2022-11-11T11:29:30;102242.94;;;14.48;68.95
4576;BME280;2300;51.874;8.430;2022-11-11T11:32:14;102238.81;;;14.57;68.78
4576;BME280;2300;51.874;8.430;2022-11-11T11:34:44;102215.47;;;14.53;68.91
4576;BME280;2300;51.874;8.430;2022-11-11T11:37:11;102235.38;;;14.62;68.56
4576;BME280;2300;51.874;8.430;2022-11-11T11:39:39;102220.28;;;14.64;68.17
4576;BME280;2300;51.874;8.430;2022-11-11T11:42:07;102221.19;;;14.58;66.47
4576;BME280;2300;51.874;8.430;2022-11-11T11:44:36;102226.72;;;14.58;67.00
4576;BME280;2300;51.874;8.430;2022-11-11T11:47:15;102231.25;;;14.78;66.91
4576;BME280;2300;51.874;8.430;2022-11-11T11:50:07;102228.31;;;14.73;66.36
4576;BME280;2300;51.874;8.430;2022-11-11T11:52:47;102242.22;;;14.91;66.86
4576;BME280;2300;51.874;8.430;2022-11-11T11:55:21;102226.81;;;14.77;65.75
4576;BME280;2300;51.874;8.430;2022-11-11T11:58:02;102217.41;;;14.78;65.77
4576;BME280;2300;51.874;8.430;2022-11-11T12:00:37;102207.66;;;14.75;65.31
4576;BME280;2300;51.874;8.430;2022-11-11T12:03:26;102204.22;;;14.80;66.01
4576;BME280;2300;51.874;8.430;2022-11-11T12:06:03;102212.88;;;14.90;65.78
4576;BME280;2300;51.874;8.430;2022-11-11T12:08:51;102214.81;;;14.83;65.37
4576;BME280;2300;51.874;8.430;2022-11-11T12:11:28;102213.59;;;14.79;65.19
4576;BME280;2300;51.874;8.430;2022-11-11T12:14:16;102211.00;;;14.84;65.37
4576;BME280;2300;51.874;8.430;2022-11-11T12:16:53;102210.50;;;14.93;65.32
4576;BME280;2300;51.874;8.430;2022-11-11T12:19:32;102211.13;;;14.95;64.67
4576;BME280;2300;51.874;8.430;2022-11-11T12:22:06;102220.44;;;15.01;65.15
4576;BME280;2300;51.874;8.430;2022-11-11T12:24:42;102209.28;;;15.14;65.13
4576;BME280;2300;51.874;8.430;2022-11-11T12:27:18;102209.59;;;15.24;64.55
4576;BME280;2300;51.874;8.430;2022-11-11T12:30:00;102206.09;;;15.35;64.21
4576;BME280;2300;51.874;8.430;2022-11-11T12:32:39;102188.22;;;15.38;64.50
4576;BME280;2300;51.874;8.430;2022-11-11T12:35:24;102194.59;;;15.38;64.93
4576;BME280;2300;51.874;8.430;2022-11-11T12:38:01;102193.97;;;15.36;65.40
4576;BME280;2300;51.874;8.430;2022-11-11T12:40:42;102192.88;;;15.37;65.05
4576;BME280;2300;51.874;8.430;2022-11-11T12:43:22;102193.81;;;15.31;63.70
4576;BME280;2300;51.874;8.430;2022-11-11T12:45:56;102186.13;;;15.33;62.93
4576;BME280;2300;51.874;8.430;2022-11-11T12:48:40;102194.50;;;15.45;63.62
4576;BME280;2300;51.874;8.430;2022-11-11T12:51:15;102193.16;;;15.54;63.49
4576;BME280;2300;51.874;8.430;2022-11-11T12:53:52;102178.91;;;15.32;62.71
4576;BME280;2300;51.874;8.430;2022-11-11T12:56:26;102189.69;;;15.59;63.82
4576;BME280;2300;51.874;8.430;2022-11-11T12:59:00;102191.28;;;15.66;63.51
4576;BME280;2300;51.874;8.430;2022-11-11T13:01:40;102196.13;;;15.53;62.95
4576;BME280;2300;51.874;8.430;2022-11-11T13:04:26;102200.97;;;15.57;63.03
4576;BME280;2300;51.874;8.430;2022-11-11T13:07:17;102189.59;;;15.65;62.93
4576;BME280;2300;51.874;8.430;2022-11-11T13:10:07;102193.75;;;15.56;62.45
4576;BME280;2300;51.874;8.430;2022-11-11T13:12:49;102191.03;;;15.49;63.01
4576;BME280;2300;51.874;8.430;2022-11-11T13:15:22;102188.53;;;15.48;63.17
4576;BME280;2300;51.874;8.430;2022-11-11T13:17:49;102197.91;;;15.47;63.34
4576;BME280;2300;51.874;8.430;2022-11-11T13:20:27;102195.50;;;15.50;64.12
4576;BME280;2300;51.874;8.430;2022-11-11T13:22:58;102193.66;;;15.44;63.28
4576;BME280;2300;51.874;8.430;2022-11-11T13:25:28;102202.91;;;15.57;62.67
4576;BME280;2300;51.874;8.430;2022-11-11T13:28:02;102180.13;;;15.36;62.73
4576;BME280;2300;51.874;8.430;2022-11-11T13:30:50;102185.66;;;15.36;62.73
4576;BME280;2300;51.874;8.430;2022-11-11T13:33:23;102155.81;;;15.20;61.82
4576;BME280;2300;51.874;8.430;2022-11-11T13:35:53;102207.22;;;15.53;62.39
4576;BME280;2300;51.874;8.430;2022-11-11T13:38:25;102182.41;;;15.21;62.14
4576;BME280;2300;51.874;8.430;2022-11-11T13:40:54;102208.13;;;15.46;63.00
4576;BME280;2300;51.874;8.430;2022-11-11T13:43:25;102199.03;;;15.39;63.11